.
WxDataArchive / Data Records for 2014-06-03
2014-06-02 June 2014 2014-06-04

Data Records for Tuesday, 03 June 2014

Time	Temp	Chill	HIndex	Humid	Dewpt	 Wind 	HiWind	WindDir	Rain 	Barom
-----	----	-----	------	-----	-----	------	------	-------	-----	-----
00:00	70.4	70.4	70.4	87	66.3	0	2	338	0.00	29.868 
00:05	70.3	70.3	70.3	88	66.6	0	2	338	0.00	29.868 
00:10	70.3	70.3	70.3	88	66.6	1	3	292	0.00	29.868 
00:15	70.3	70.3	70.3	88	66.6	0	2	112	0.00	29.869 
00:20	70.3	70.3	70.3	88	66.6	0	3	112	0.00	29.869 
00:25	70.3	70.3	70.3	88	66.6	0	3	158	0.00	29.869 
00:30	70.3	70.3	70.3	88	66.6	1	4	270	0.00	29.870 
00:35	70.3	70.3	70.3	88	66.6	1	5	270	0.00	29.870 
00:40	70.4	70.4	70.4	88	66.7	1	3	270	0.00	29.870 
00:45	70.4	70.4	70.4	88	66.7	0	1	292	0.00	29.870 
00:50	70.4	70.4	70.4	88	66.7	0	2	338	0.00	29.870 
00:55	70.4	70.4	70.4	88	66.7	1	3	315	0.00	29.870 
01:00	70.4	70.4	70.4	88	66.7	1	4	338	0.00	29.873 
01:05	70.6	70.6	70.6	88	66.9	0	2	270	0.00	29.873 
01:10	70.6	70.6	70.6	88	66.9	0	2	270	0.00	29.873 
01:15	70.6	70.6	70.6	88	66.9	0	2	270	0.00	29.868 
01:20	70.6	70.6	70.6	88	66.9	0	3	270	0.00	29.868 
01:25	70.6	70.6	70.6	88	66.9	0	2	270	0.00	29.868 
01:30	70.6	70.6	70.6	88	66.9	0	1	270	0.00	29.867 
01:35	70.6	70.6	70.6	87	66.5	0	2	270	0.00	29.867 
01:40	70.6	70.6	70.6	87	66.5	0	2	270	0.00	29.867 
01:45	70.8	70.8	70.8	87	66.7	0	3	270	0.00	29.868 
01:50	70.8	70.8	70.8	87	66.7	0	3	270	0.00	29.868 
01:55	70.8	70.8	70.8	87	66.7	0	3	270	0.00	29.868 
02:00	70.8	70.8	70.8	86	66.4	0	2	270	0.00	29.866 
02:05	70.8	70.8	70.8	86	66.4	0	2	270	0.00	29.866 
02:10	70.8	70.8	70.8	86	66.4	0	3	270	0.00	29.866 
02:15	70.8	70.8	70.8	86	66.4	1	3	270	0.00	29.857 
02:20	70.8	70.8	70.8	86	66.4	0	4	90	0.00	29.857 
02:25	70.8	70.8	70.8	86	66.4	0	2	0	0.00	29.857 
02:30	70.8	70.8	70.8	86	66.4	0	1	0	0.00	29.864 
02:35	70.8	70.8	70.8	86	66.4	0	3	0	0.00	29.864 
02:40	70.8	70.8	70.8	86	66.4	1	3	315	0.00	29.864 
02:45	70.8	70.8	70.8	86	66.4	0	2	315	0.00	29.854 
02:50	70.8	70.8	70.8	86	66.4	0	2	292	0.00	29.854 
02:55	70.8	70.8	70.8	86	66.4	1	3	315	0.00	29.854 
03:00	70.6	70.6	70.6	86	66.2	0	2	315	0.00	29.851 
03:05	70.6	70.6	70.6	86	66.2	1	2	315	0.00	29.851 
03:10	70.6	70.6	70.6	86	66.2	0	3	315	0.00	29.851 
03:15	70.6	70.6	70.6	86	66.2	0	2	315	0.00	29.856 
03:20	70.6	70.6	70.6	86	66.2	0	2	315	0.00	29.856 
03:25	70.6	70.6	70.6	86	66.2	1	3	315	0.00	29.856 
03:30	70.4	70.4	70.4	86	66.0	0	2	292	0.00	29.857 
03:35	70.4	70.4	70.4	86	66.0	0	2	292	0.00	29.857 
03:40	70.4	70.4	70.4	86	66.0	1	5	292	0.00	29.857 
03:45	70.4	70.4	70.4	86	66.0	1	4	292	0.00	29.860 
03:50	70.4	70.4	70.4	86	66.0	1	3	292	0.00	29.860 
03:55	70.3	70.3	70.3	86	65.9	1	3	292	0.00	29.860 
04:00	70.3	70.3	70.3	86	65.9	0	2	292	0.00	29.855 
04:05	70.3	70.3	70.3	86	65.9	0	1	292	0.00	29.855 
04:10	70.1	70.1	70.1	86	65.7	1	3	292	0.00	29.855 
04:15	70.1	70.1	70.1	86	65.7	0	2	292	0.00	29.855 
04:20	70.1	70.1	70.1	86	65.7	0	2	292	0.00	29.855 
04:25	70.1	70.1	70.1	86	65.7	1	4	292	0.00	29.855 
04:30	69.9	69.9	69.9	87	65.8	0	2	292	0.00	29.853 
04:35	69.9	69.9	69.9	87	65.8	0	3	292	0.00	29.853 
04:40	69.9	69.9	69.9	87	65.8	0	3	292	0.00	29.853 
04:45	69.9	69.9	69.9	87	65.8	0	2	292	0.00	29.855 
04:50	69.9	69.9	69.9	87	65.8	1	3	292	0.00	29.855 
04:55	69.9	69.9	69.9	87	65.8	0	4	292	0.00	29.855 
05:00	69.9	69.9	69.9	87	65.8	0	2	292	0.00	29.853 
05:05	69.9	69.9	69.9	87	65.8	0	2	292	0.00	29.853 
05:10	69.9	69.9	69.9	87	65.8	0	3	225	0.00	29.853 
05:15	69.8	69.8	69.8	87	65.7	0	2	225	0.00	29.856 
05:20	69.6	69.6	69.6	87	65.6	0	3	225	0.00	29.856 
05:25	69.6	69.6	69.6	87	65.6	0	2	225	0.00	29.856 
05:30	69.6	69.6	69.6	87	65.6	1	5	270	0.00	29.857 
05:35	69.4	69.4	69.4	87	65.4	0	2	270	0.00	29.857 
05:40	69.3	69.3	69.3	88	65.6	0	4	270	0.00	29.857 
05:45	69.3	69.3	69.3	88	65.6	0	3	270	0.00	29.856 
05:50	69.1	69.1	69.1	88	65.4	0	3	270	0.00	29.856 
05:55	69.1	69.1	69.1	88	65.4	0	4	270	0.00	29.856 
06:00	69.1	69.1	69.1	88	65.4	0	3	315	0.00	29.859 
06:05	69.1	69.1	69.1	89	65.7	0	2	315	0.00	29.859 
06:10	69.1	69.1	69.1	89	65.7	0	2	315	0.00	29.859 
06:15	69.1	69.1	69.1	89	65.7	0	3	315	0.00	29.859 
06:20	69.1	69.1	69.1	89	65.7	0	3	315	0.00	29.859 
06:25	69.1	69.1	69.1	88	65.4	0	1	315	0.00	29.859 
06:30	69.1	69.1	69.1	89	65.7	0	3	315	0.00	29.865 
06:35	69.1	69.1	69.1	89	65.7	1	3	315	0.00	29.865 
06:40	69.1	69.1	69.1	89	65.7	0	2	315	0.00	29.865 
06:45	69.1	69.1	69.1	89	65.7	0	3	315	0.00	29.872 
06:50	69.1	69.1	69.1	89	65.7	0	1	225	0.00	29.872 
06:55	69.1	69.1	69.1	88	65.4	1	2	248	0.00	29.872 
07:00	69.3	69.3	69.3	88	65.6	0	2	248	0.00	29.874 
07:05	69.4	69.4	69.4	88	65.7	0	2	248	0.00	29.874 
07:10	69.6	69.6	69.6	88	65.9	1	4	248	0.00	29.874 
07:15	69.8	69.8	69.8	88	66.1	1	4	248	0.00	29.874 
07:20	69.9	69.9	69.9	87	65.8	0	2	248	0.00	29.874 
07:25	70.3	70.3	70.3	87	66.2	1	4	248	0.00	29.874 
07:30	70.4	70.4	70.4	86	66.0	1	4	248	0.00	29.877 
07:35	70.8	70.8	70.8	85	66.1	1	3	248	0.00	29.877 
07:40	70.9	70.9	70.9	85	66.2	1	5	248	0.00	29.877 
07:45	71.3	71.3	71.3	84	66.2	1	3	248	0.00	29.880 
07:50	71.6	71.6	71.6	83	66.2	1	2	292	0.00	29.880 
07:55	72.0	72.0	72.0	82	66.2	1	3	292	0.00	29.880 
08:00	72.1	72.1	72.1	81	65.9	1	3	292	0.00	29.880 
08:05	72.3	72.3	72.3	81	66.1	1	4	292	0.00	29.880 
08:10	72.5	72.5	72.5	80	66.0	2	5	292	0.00	29.880 
08:15	72.7	72.7	72.7	80	66.2	2	5	270	0.00	29.873 
08:20	73.0	73.0	73.0	79	66.1	1	4	270	0.00	29.873 
08:25	73.2	73.2	73.2	79	66.3	2	4	292	0.00	29.873 
08:30	73.3	73.3	73.3	78	66.0	2	4	292	0.00	29.882 
08:35	73.5	73.5	73.5	78	66.2	1	4	270	0.00	29.882 
08:40	73.9	73.9	73.9	77	66.2	1	3	270	0.00	29.882 
08:45	73.9	73.9	73.9	77	66.2	2	4	270	0.00	29.880 
08:50	73.9	73.9	73.9	77	66.2	2	5	270	0.00	29.880 
08:55	74.2	74.2	74.2	77	66.5	1	4	292	0.00	29.880 
09:00	74.4	74.4	74.4	76	66.3	2	5	270	0.00	29.883 
09:05	74.6	74.6	74.6	76	66.5	1	4	292	0.00	29.883 
09:10	74.7	74.7	74.7	75	66.2	1	4	292	0.00	29.883 
09:15	74.9	74.9	74.9	75	66.4	1	3	270	0.00	29.885 
09:20	75.1	75.1	76.4	74	66.2	2	5	292	0.00	29.885 
09:25	75.1	75.1	76.5	73	65.8	2	5	270	0.00	29.885 
09:30	75.1	75.1	76.6	72	65.4	2	4	270	0.00	29.886 
09:35	75.6	75.6	77.0	73	66.3	1	5	270	0.00	29.886 
09:40	75.8	75.8	77.4	70	65.3	2	4	292	0.00	29.886 
09:45	76.1	76.1	77.8	70	65.6	2	4	270	0.00	29.884 
09:50	76.1	76.1	77.8	68	64.8	2	6	270	0.00	29.884 
09:55	76.1	76.1	77.8	68	64.8	2	5	270	0.00	29.884 
10:00	76.3	76.3	78.0	69	65.4	1	3	270	0.00	29.883 
10:05	76.7	76.7	78.5	66	64.5	2	4	292	0.00	29.883 
10:10	76.7	76.7	78.5	65	64.0	2	6	292	0.00	29.883 
10:15	77.0	77.0	78.8	65	64.3	2	4	270	0.00	29.875 
10:20	77.2	77.2	79.0	66	64.9	1	5	270	0.00	29.875 
10:25	77.9	77.9	79.7	64	64.7	1	4	292	0.00	29.875 
10:30	78.1	78.1	79.9	63	64.5	1	5	270	0.00	29.872 
10:35	78.5	78.5	80.3	62	64.4	1	4	270	0.00	29.872 
10:40	78.5	78.5	80.2	61	63.9	1	5	270	0.00	29.872 
10:45	78.5	78.5	80.0	57	62.0	3	7	270	0.00	29.874 
10:50	78.5	78.5	80.1	59	63.0	3	5	270	0.00	29.874 
10:55	78.6	78.6	80.1	58	62.6	3	5	292	0.00	29.874 
11:00	78.8	78.8	80.3	58	62.8	2	4	292	0.00	29.876 
11:05	79.2	79.2	80.4	54	61.1	3	7	270	0.00	29.876 
11:10	78.8	78.8	80.1	55	61.2	4	7	292	0.00	29.876 
11:15	78.6	78.6	80.0	55	61.1	3	6	292	0.00	29.876 
11:20	79.0	79.0	80.2	53	60.4	3	7	270	0.00	29.876 
11:25	79.0	79.0	80.2	53	60.4	2	6	270	0.00	29.876 
11:30	79.2	79.2	80.3	52	60.0	3	6	270	0.00	29.877 
11:35	79.0	79.0	80.2	53	60.4	4	7	292	0.00	29.877 
11:40	78.8	78.8	80.0	53	60.2	3	7	292	0.00	29.877 
11:45	78.8	78.8	80.0	53	60.2	2	7	270	0.00	29.882 
11:50	79.0	79.0	80.0	51	59.3	4	9	270	0.00	29.882 
11:55	79.2	79.2	80.1	49	58.4	4	9	270	0.00	29.882 
12:00	79.4	79.4	80.2	49	58.5	4	9	270	0.00	29.884 
12:05	79.6	79.6	80.5	50	59.3	4	7	292	0.00	29.884 
12:10	79.8	79.8	80.5	48	58.3	4	10	270	0.00	29.884 
12:15	79.9	79.9	80.6	49	59.0	3	6	292	0.00	29.884 
12:20	79.8	79.8	80.5	48	58.3	4	8	270	0.00	29.884 
12:25	79.8	79.8	80.4	47	57.8	4	7	270	0.00	29.884 
12:30	80.1	80.1	80.6	47	58.0	2	6	270	0.00	29.883 
12:35	80.1	80.1	80.7	48	58.6	2	6	248	0.00	29.883 
12:40	80.1	80.1	80.6	47	58.0	3	7	270	0.00	29.883 
12:45	80.3	80.3	80.8	47	58.2	3	6	270	0.00	29.883 
12:50	80.9	80.9	81.2	46	58.2	3	6	270	0.00	29.883 
12:55	80.9	80.9	80.8	42	55.6	4	9	270	0.00	29.883 
13:00	81.1	81.1	80.9	42	55.8	5	9	270	0.00	29.885 
13:05	81.1	81.1	81.0	43	56.5	4	10	292	0.00	29.885 
13:10	81.2	81.2	81.0	42	55.9	3	9	270	0.00	29.885 
13:15	81.2	81.2	80.9	41	55.2	4	9	292	0.00	29.881 
13:20	81.1	81.1	80.8	41	55.1	4	9	270	0.00	29.881 
13:25	81.2	81.2	81.1	43	56.5	3	6	270	0.00	29.881 
13:30	81.8	81.8	81.2	39	54.4	4	10	270	0.00	29.882 
13:35	81.8	81.8	81.2	39	54.4	5	11	292	0.00	29.882 
13:40	81.8	81.8	81.2	39	54.4	5	10	270	0.00	29.882 
13:45	82.2	82.2	81.0	34	51.0	3	9	270	0.00	29.873 
13:50	82.2	82.2	81.1	35	51.8	5	10	270	0.00	29.873 
13:55	82.2	82.2	81.2	36	52.6	5	7	270	0.00	29.873 
14:00	82.4	82.4	81.2	35	52.0	4	7	270	0.00	29.879 
14:05	82.6	82.6	81.4	35	52.1	4	9	270	0.00	29.879 
14:10	82.8	82.8	81.4	34	51.5	3	7	270	0.00	29.879 
14:15	82.8	82.8	81.2	31	49.0	5	12	270	0.00	29.875 
14:20	82.6	82.6	81.2	33	50.6	5	9	270	0.00	29.875 
14:25	82.8	82.8	81.4	34	51.5	4	7	270	0.00	29.875 
14:30	82.8	82.8	81.6	35	52.3	3	7	270	0.00	29.868 
14:35	82.6	82.6	81.5	36	52.9	4	7	315	0.00	29.868 
14:40	82.4	82.4	81.2	35	52.0	4	13	270	0.00	29.868 
14:45	82.4	82.4	81.1	34	51.2	4	6	270	0.00	29.871 
14:50	82.4	82.4	81.2	35	52.0	3	7	315	0.00	29.871 
14:55	82.2	82.2	80.9	33	50.2	5	10	270	0.00	29.871 
15:00	82.0	82.0	80.8	34	50.8	3	10	292	0.00	29.869 
15:05	82.0	82.0	80.7	32	49.2	3	8	315	0.00	29.869 
15:10	82.2	82.2	80.8	32	49.4	4	6	315	0.00	29.869 
15:15	82.4	82.4	80.9	32	49.5	4	7	270	0.00	29.869 
15:20	82.4	82.4	80.9	31	48.7	4	7	270	0.00	29.869 
15:25	82.4	82.4	80.9	32	49.5	3	6	270	0.00	29.869 
15:30	82.6	82.6	81.0	31	48.9	3	6	270	0.00	29.868 
15:35	82.6	82.6	81.1	32	49.7	4	7	270	0.00	29.868 
15:40	82.2	82.2	80.6	30	47.7	4	10	292	0.00	29.868 
15:45	82.4	82.4	80.9	31	48.7	3	6	270	0.00	29.871 
15:50	81.8	81.8	80.4	31	48.2	4	10	292	0.00	29.871 
15:55	81.8	81.8	80.5	32	49.0	4	7	270	0.00	29.871 
16:00	81.8	81.8	80.7	34	50.7	4	9	292	0.00	29.869 
16:05	81.8	81.8	80.5	32	49.0	3	6	292	0.00	29.869 
16:10	81.6	81.6	80.4	32	48.9	4	7	292	0.00	29.869 
16:15	81.4	81.4	80.5	35	51.1	3	5	292	0.00	29.870 
16:20	81.2	81.2	80.2	33	49.3	3	6	292	0.00	29.870 
16:25	81.2	81.2	80.3	34	50.1	3	7	292	0.00	29.870 
16:30	81.2	81.2	80.2	33	49.3	3	6	270	0.00	29.874 
16:35	81.1	81.1	80.0	32	48.4	4	8	292	0.00	29.874 
16:40	80.7	80.7	79.7	31	47.2	4	11	338	0.00	29.874 
16:45	80.9	80.9	80.1	34	49.9	2	5	315	0.00	29.869 
16:50	81.1	81.1	80.0	32	48.4	3	6	315	0.00	29.869 
16:55	81.1	81.1	79.9	31	47.6	3	7	292	0.00	29.869 
17:00	80.9	80.9	79.7	29	45.6	4	9	315	0.00	29.870 
17:05	80.7	80.7	79.7	31	47.2	3	7	315	0.00	29.870 
17:10	80.5	80.5	79.6	31	47.1	3	6	338	0.00	29.870 
17:15	80.7	80.7	79.6	30	46.4	3	7	315	0.00	29.869 
17:20	80.7	80.7	79.7	31	47.2	3	5	338	0.00	29.869 
17:25	80.5	80.5	79.6	31	47.1	3	7	315	0.00	29.869 
17:30	80.5	80.5	79.4	29	45.3	3	6	292	0.00	29.873 
17:35	80.5	80.5	79.5	30	46.2	2	4	315	0.00	29.873 
17:40	80.7	80.7	79.6	30	46.4	3	5	270	0.00	29.873 
17:45	80.5	80.5	79.6	31	47.1	3	6	315	0.00	29.871 
17:50	80.5	80.5	79.6	31	47.1	1	4	292	0.00	29.871 
17:55	80.1	80.1	79.3	31	46.7	3	6	292	0.00	29.871 
18:00	79.6	79.6	79.0	30	45.4	3	6	292	0.00	29.877 
18:05	79.4	79.4	78.8	30	45.2	3	10	292	0.00	29.877 
18:10	79.2	79.2	78.9	32	46.8	2	5	315	0.00	29.877 
18:15	79.2	79.2	78.8	31	45.9	3	5	292	0.00	29.875 
18:20	79.0	79.0	78.7	31	45.8	2	5	292	0.00	29.875 
18:25	78.8	78.8	78.6	31	45.6	3	5	292	0.00	29.875 
18:30	78.6	78.6	78.5	31	45.4	3	6	292	0.00	29.874 
18:35	78.6	78.6	78.5	31	45.4	2	6	292	0.00	29.874 
18:40	78.5	78.5	78.4	31	45.3	2	6	338	0.00	29.874 
18:45	78.3	78.3	78.5	33	46.8	2	4	315	0.00	29.875 
18:50	78.1	78.1	78.4	33	46.6	3	5	292	0.00	29.875 
18:55	78.3	78.3	78.4	32	46.0	2	4	315	0.00	29.875 
19:00	78.1	78.1	78.4	33	46.6	2	6	292	0.00	29.874 
19:05	77.9	77.9	78.2	32	45.6	3	6	315	0.00	29.874 
19:10	77.9	77.9	78.3	33	46.5	2	5	292	0.00	29.874 
19:15	77.7	77.7	78.2	33	46.3	2	5	292	0.00	29.871 
19:20	77.6	77.6	78.1	33	46.2	2	4	315	0.00	29.871 
19:25	77.6	77.6	78.3	36	48.5	1	3	315	0.00	29.871 
19:30	77.2	77.2	78.0	34	46.6	1	5	315	0.00	29.869 
19:35	77.2	77.2	78.0	34	46.6	1	4	292	0.00	29.869 
19:40	77.0	77.0	77.9	34	46.5	1	4	292	0.00	29.869 
19:45	76.8	76.8	77.8	34	46.3	1	4	315	0.00	29.872 
19:50	76.7	76.7	77.9	35	47.0	1	2	315	0.00	29.872 
19:55	76.5	76.5	77.8	35	46.8	1	3	315	0.00	29.872 
20:00	76.1	76.1	77.7	36	47.2	1	3	315	0.00	29.872 
20:05	75.8	75.8	77.6	36	46.9	1	3	315	0.00	29.872 
20:10	75.6	75.6	77.4	35	46.0	1	3	315	0.00	29.872 
20:15	75.4	75.4	77.5	37	47.3	1	3	315	0.00	29.876 
20:20	75.3	75.3	77.5	37	47.2	0	2	315	0.00	29.876 
20:25	75.1	75.1	77.5	39	48.4	0	1	315	0.00	29.876 
20:30	74.6	74.6	74.6	38	47.3	0	2	315	0.00	29.877 
20:35	74.2	74.2	74.2	39	47.6	0	3	338	0.00	29.877 
20:40	73.9	73.9	73.9	39	47.4	0	2	338	0.00	29.877 
20:45	73.3	73.3	73.3	39	46.8	0	1	338	0.00	29.881 
20:50	73.0	73.0	73.0	39	46.6	0	1	338	0.00	29.881 
20:55	72.7	72.7	72.7	39	46.3	0	1	338	0.00	29.881 
21:00	72.1	72.1	72.1	39	45.8	0	2	338	0.00	29.881 
21:05	72.0	72.0	72.0	39	45.7	0	1	338	0.00	29.881 
21:10	71.6	71.6	71.6	39	45.3	0	1	338	0.00	29.881 
21:15	71.5	71.5	71.5	40	45.9	0	0	---	0.00	29.881 
21:20	71.1	71.1	71.1	41	46.2	0	0	---	0.00	29.881 
21:25	70.6	70.6	70.6	41	45.7	0	0	---	0.00	29.881 
21:30	70.3	70.3	70.3	42	46.1	0	0	---	0.00	29.887 
21:35	69.9	69.9	69.9	43	46.4	0	0	---	0.00	29.887 
21:40	69.6	69.6	69.6	43	46.1	0	0	---	0.00	29.887 
21:45	69.1	69.1	69.1	44	46.3	0	0	---	0.00	29.887 
21:50	68.8	68.8	68.8	45	46.6	0	0	---	0.00	29.887 
21:55	68.4	68.4	68.4	46	46.8	0	0	---	0.00	29.887 
22:00	67.9	67.9	67.9	48	47.5	0	0	---	0.00	29.884 
22:05	67.3	67.3	67.3	50	48.0	0	0	---	0.00	29.884 
22:10	66.8	66.8	66.8	51	48.1	0	0	---	0.00	29.884 
22:15	66.3	66.3	66.3	51	47.6	0	0	---	0.00	29.889 
22:20	66.0	66.0	66.0	51	47.3	0	0	---	0.00	29.889 
22:25	65.5	65.5	65.5	53	47.9	0	0	---	0.00	29.889 
22:30	65.0	65.0	65.0	53	47.4	0	0	---	0.00	29.893 
22:35	64.7	64.7	64.7	54	47.7	0	0	---	0.00	29.893 
22:40	64.3	64.3	64.3	56	48.3	0	0	---	0.00	29.893 
22:45	64.0	64.0	64.0	56	48.0	0	0	---	0.00	29.886 
22:50	63.7	63.7	63.7	57	48.2	0	0	---	0.00	29.886 
22:55	63.5	63.5	63.5	58	48.5	0	0	---	0.00	29.886 
23:00	63.2	63.2	63.2	58	48.2	0	0	---	0.00	29.884 
23:05	63.1	63.1	63.1	58	48.1	0	0	---	0.00	29.884 
23:10	62.9	62.9	62.9	59	48.3	0	0	---	0.00	29.884 
23:15	62.7	62.7	62.7	60	48.6	0	0	---	0.00	29.893 
23:20	62.7	62.7	62.7	60	48.6	0	0	---	0.00	29.893 
23:25	62.7	62.7	62.7	59	48.2	0	0	---	0.00	29.893 
23:30	62.9	62.9	62.9	60	48.8	0	0	---	0.00	29.905 
23:35	62.9	62.9	62.9	60	48.8	0	0	---	0.00	29.905 
23:40	62.7	62.7	62.7	60	48.6	0	0	---	0.00	29.905 
23:45	62.4	62.4	62.4	60	48.3	0	0	---	0.00	29.901 
23:50	62.3	62.3	62.3	61	48.7	0	0	---	0.00	29.901 
23:55	62.1	62.1	62.1	62	48.9	0	0	---	0.00	29.901 

CoCoRaHS
IN-AL-39
A2 Web Hosting
Creative Commons License
GoDaddy
search engine by freefind advanced

loaded 2018-11-20 06:12:32 • last modified 2010-11-18 10:43:29
Privacy PolicyDisclaimer
• wx.awcolley.com is powered by PmWiki v.2002016 •
• all content (unless otherwise noted) © 2018 A W Colley